sensor_id;sensor_type;location;lat;lon;timestamp;pressure;altitude;pressure_sealevel;temperature;humidity
56632;BME280;42503;39.928;-75.152;2022-10-26T00:01:26;101461.81;;;23.10;48.25
56632;BME280;42503;39.928;-75.152;2022-10-26T00:03:27;101466.81;;;23.13;48.43
56632;BME280;42503;39.928;-75.152;2022-10-26T00:05:31;101446.78;;;23.01;48.21
56632;BME280;42503;39.928;-75.152;2022-10-26T00:07:33;101452.03;;;23.13;48.42
56632;BME280;42503;39.928;-75.152;2022-10-26T00:09:34;101441.72;;;23.03;48.25
56632;BME280;42503;39.928;-75.152;2022-10-26T00:11:36;101464.03;;;23.13;48.23
56632;BME280;42503;39.928;-75.152;2022-10-26T00:13:38;101446.44;;;23.13;48.04
56632;BME280;42503;39.928;-75.152;2022-10-26T00:15:40;101417.19;;;22.90;48.22
56632;BME280;42503;39.928;-75.152;2022-10-26T00:17:43;101406.88;;;22.90;48.35
56632;BME280;42503;39.928;-75.152;2022-10-26T00:19:44;101418.03;;;23.00;48.15
56632;BME280;42503;39.928;-75.152;2022-10-26T00:21:51;101430.28;;;23.10;48.20
56632;BME280;42503;39.928;-75.152;2022-10-26T00:23:53;101427.72;;;23.13;48.19
56632;BME280;42503;39.928;-75.152;2022-10-26T00:25:55;101432.50;;;23.13;48.18
56632;BME280;42503;39.928;-75.152;2022-10-26T00:27:56;101431.66;;;23.12;48.14
56632;BME280;42503;39.928;-75.152;2022-10-26T00:29:58;101430.00;;;23.11;48.22
56632;BME280;42503;39.928;-75.152;2022-10-26T00:31:59;101426.06;;;23.12;47.98
56632;BME280;42503;39.928;-75.152;2022-10-26T00:34:03;101424.41;;;23.11;48.15
56632;BME280;42503;39.928;-75.152;2022-10-26T00:36:04;101413.78;;;23.08;48.30
56632;BME280;42503;39.928;-75.152;2022-10-26T00:38:15;101428.31;;;23.10;48.06
56632;BME280;42503;39.928;-75.152;2022-10-26T00:40:19;101393.47;;;22.97;48.15
56632;BME280;42503;39.928;-75.152;2022-10-26T00:42:23;101421.31;;;23.13;48.03
56632;BME280;42503;39.928;-75.152;2022-10-26T00:46:46;101396.53;;;23.01;48.01
56632;BME280;42503;39.928;-75.152;2022-10-26T00:48:51;101418.81;;;23.11;48.17
56632;BME280;42503;39.928;-75.152;2022-10-26T00:50:53;101420.50;;;23.12;47.90
56632;BME280;42503;39.928;-75.152;2022-10-26T00:53:00;101427.19;;;23.11;47.96
56632;BME280;42503;39.928;-75.152;2022-10-26T00:55:06;101424.41;;;23.11;47.76
56632;BME280;42503;39.928;-75.152;2022-10-26T00:57:09;101421.03;;;23.09;48.26
56632;BME280;42503;39.928;-75.152;2022-10-26T00:59:13;101419.09;;;23.15;48.01
56632;BME280;42503;39.928;-75.152;2022-10-26T01:01:15;101385.38;;;22.91;47.78
56632;BME280;42503;39.928;-75.152;2022-10-26T01:03:16;101421.31;;;23.13;47.82
56632;BME280;42503;39.928;-75.152;2022-10-26T01:05:18;101375.03;;;22.86;48.08
56632;BME280;42503;39.928;-75.152;2022-10-26T01:07:20;101419.66;;;23.12;47.94
56632;BME280;42503;39.928;-75.152;2022-10-26T01:09:24;101418.81;;;23.11;47.84
56632;BME280;42503;39.928;-75.152;2022-10-26T01:11:25;101418.00;;;23.11;47.91
56632;BME280;42503;39.928;-75.152;2022-10-26T01:13:29;101422.75;;;23.10;48.00
56632;BME280;42503;39.928;-75.152;2022-10-26T01:18:18;101417.72;;;23.07;47.99
56632;BME280;42503;39.928;-75.152;2022-10-26T01:20:42;101418.00;;;23.11;47.89
56632;BME280;42503;39.928;-75.152;2022-10-26T01:22:56;101407.66;;;23.11;47.71
56632;BME280;42503;39.928;-75.152;2022-10-26T01:27:39;101357.47;;;22.80;47.84
56632;BME280;42503;39.928;-75.152;2022-10-26T01:29:58;101403.75;;;23.12;47.82
56632;BME280;42503;39.928;-75.152;2022-10-26T01:32:23;101392.34;;;22.98;48.19
56632;BME280;42503;39.928;-75.152;2022-10-26T01:34:33;101378.69;;;22.92;47.72
56632;BME280;42503;39.928;-75.152;2022-10-26T01:36:51;101407.66;;;23.11;47.90
56632;BME280;42503;39.928;-75.152;2022-10-26T01:39:45;101404.88;;;23.11;47.72
56632;BME280;42503;39.928;-75.152;2022-10-26T01:41:43;101253.06;;;22.17;47.73
56632;BME280;42503;39.928;-75.152;2022-10-26T01:43:52;101404.88;;;23.11;48.13
56632;BME280;42503;39.928;-75.152;2022-10-26T01:45:56;101370.84;;;22.89;47.83
56632;BME280;42503;39.928;-75.152;2022-10-26T01:47:58;101401.25;;;23.11;47.96
56632;BME280;42503;39.928;-75.152;2022-10-26T01:50:03;101406.81;;;23.11;47.63
56632;BME280;42503;39.928;-75.152;2022-10-26T01:52:05;101413.25;;;23.11;47.74
56632;BME280;42503;39.928;-75.152;2022-10-26T01:54:06;101404.28;;;23.09;47.77
56632;BME280;42503;39.928;-75.152;2022-10-26T01:56:12;101402.63;;;23.08;48.02
56632;BME280;42503;39.928;-75.152;2022-10-26T02:00:37;101407.38;;;23.07;48.07
56632;BME280;42503;39.928;-75.152;2022-10-26T02:05:22;101415.22;;;23.05;47.96
56632;BME280;42503;39.928;-75.152;2022-10-26T02:07:36;101414.63;;;23.08;48.11
56632;BME280;42503;39.928;-75.152;2022-10-26T02:12:06;101409.38;;;23.02;48.10
56632;BME280;42503;39.928;-75.152;2022-10-26T02:16:24;101416.31;;;23.10;47.93
56632;BME280;42503;39.928;-75.152;2022-10-26T02:20:59;101371.44;;;22.80;47.98
56632;BME280;42503;39.928;-75.152;2022-10-26T02:23:10;101419.38;;;23.08;48.07
56632;BME280;42503;39.928;-75.152;2022-10-26T02:25:38;101408.22;;;23.08;48.12
56632;BME280;42503;39.928;-75.152;2022-10-26T02:27:46;101415.47;;;23.09;48.04
56632;BME280;42503;39.928;-75.152;2022-10-26T02:29:49;101413.53;;;23.10;47.82
56632;BME280;42503;39.928;-75.152;2022-10-26T02:31:53;101389.84;;;22.97;48.08
56632;BME280;42503;39.928;-75.152;2022-10-26T02:33:58;101414.91;;;23.12;48.05
56632;BME280;42503;39.928;-75.152;2022-10-26T02:36:04;101414.34;;;23.15;48.34
56632;BME280;42503;39.928;-75.152;2022-10-26T02:38:09;101411.25;;;23.17;48.13
56632;BME280;42503;39.928;-75.152;2022-10-26T02:40:17;101407.34;;;23.18;48.37
56632;BME280;42503;39.928;-75.152;2022-10-26T02:42:21;101390.09;;;23.05;48.25
56632;BME280;42503;39.928;-75.152;2022-10-26T02:44:25;101401.22;;;23.16;48.09
56632;BME280;42503;39.928;-75.152;2022-10-26T02:46:28;101402.59;;;23.18;47.85
56632;BME280;42503;39.928;-75.152;2022-10-26T02:48:33;101379.47;;;23.07;47.86
56632;BME280;42503;39.928;-75.152;2022-10-26T02:50:50;101391.97;;;23.20;47.76
56632;BME280;42503;39.928;-75.152;2022-10-26T02:53:01;101392.53;;;23.22;47.59
56632;BME280;42503;39.928;-75.152;2022-10-26T02:57:25;101361.34;;;23.05;47.33
56632;BME280;42503;39.928;-75.152;2022-10-26T02:59:32;101351.28;;;23.04;47.49
56632;BME280;42503;39.928;-75.152;2022-10-26T03:01:35;101385.25;;;23.26;47.54
56632;BME280;42503;39.928;-75.152;2022-10-26T03:03:37;101361.00;;;23.17;47.26
56632;BME280;42503;39.928;-75.152;2022-10-26T03:05:41;101383.03;;;23.28;47.38
56632;BME280;42503;39.928;-75.152;2022-10-26T03:07:42;101349.91;;;23.06;47.17
56632;BME280;42503;39.928;-75.152;2022-10-26T03:09:43;101276.63;;;22.65;47.22
56632;BME280;42503;39.928;-75.152;2022-10-26T03:11:45;101380.78;;;23.25;47.40
56632;BME280;42503;39.928;-75.152;2022-10-26T03:13:46;101380.78;;;23.25;47.24
56632;BME280;42503;39.928;-75.152;2022-10-26T03:15:54;101383.03;;;23.28;47.46
56632;BME280;42503;39.928;-75.152;2022-10-26T03:17:56;101383.56;;;23.30;47.41
56632;BME280;42503;39.928;-75.152;2022-10-26T03:19:57;101371.03;;;23.23;47.38
56632;BME280;42503;39.928;-75.152;2022-10-26T03:21:59;101375.75;;;23.27;47.49
56632;BME280;42503;39.928;-75.152;2022-10-26T03:24:00;101374.88;;;23.32;47.28
56632;BME280;42503;39.928;-75.152;2022-10-26T03:26:01;101374.06;;;23.31;47.28
56632;BME280;42503;39.928;-75.152;2022-10-26T03:28:04;101372.94;;;23.32;47.21
56632;BME280;42503;39.928;-75.152;2022-10-26T03:30:08;101371.56;;;23.30;47.40
56632;BME280;42503;39.928;-75.152;2022-10-26T03:32:09;101350.66;;;23.22;47.59
56632;BME280;42503;39.928;-75.152;2022-10-26T03:34:13;101377.41;;;23.33;47.20
56632;BME280;42503;39.928;-75.152;2022-10-26T03:36:17;101360.72;;;23.23;47.35
56632;BME280;42503;39.928;-75.152;2022-10-26T03:38:19;101369.56;;;23.36;47.21
56632;BME280;42503;39.928;-75.152;2022-10-26T03:40:20;101377.94;;;23.36;47.36
56632;BME280;42503;39.928;-75.152;2022-10-26T03:42:35;101368.72;;;23.35;47.44
56632;BME280;42503;39.928;-75.152;2022-10-26T03:44:39;101363.97;;;23.36;47.57
56632;BME280;42503;39.928;-75.152;2022-10-26T03:46:41;101374.03;;;23.37;47.28
56632;BME280;42503;39.928;-75.152;2022-10-26T03:48:42;101366.50;;;23.37;47.23
56632;BME280;42503;39.928;-75.152;2022-10-26T03:50:44;101340.59;;;23.21;47.37
56632;BME280;42503;39.928;-75.152;2022-10-26T03:52:48;101339.78;;;23.21;47.76
56632;BME280;42503;39.928;-75.152;2022-10-26T03:54:52;101365.66;;;23.37;47.73
56632;BME280;42503;39.928;-75.152;2022-10-26T03:56:55;101367.34;;;23.38;47.76
56632;BME280;42503;39.928;-75.152;2022-10-26T03:58:57;101358.13;;;23.37;47.77
56632;BME280;42503;39.928;-75.152;2022-10-26T04:00:58;101362.03;;;23.36;47.66
56632;BME280;42503;39.928;-75.152;2022-10-26T04:02:59;101359.22;;;23.36;48.01
56632;BME280;42503;39.928;-75.152;2022-10-26T04:05:00;101360.06;;;23.37;47.69
56632;BME280;42503;39.928;-75.152;2022-10-26T04:07:02;101347.59;;;23.24;47.66
56632;BME280;42503;39.928;-75.152;2022-10-26T04:09:06;101359.00;;;23.32;47.86
56632;BME280;42503;39.928;-75.152;2022-10-26T04:11:10;101368.44;;;23.37;47.78
56632;BME280;42503;39.928;-75.152;2022-10-26T04:13:11;101365.66;;;23.37;47.61
56632;BME280;42503;39.928;-75.152;2022-10-26T04:15:13;101367.06;;;23.34;47.89
56632;BME280;42503;39.928;-75.152;2022-10-26T04:17:17;101343.97;;;23.23;47.67
56632;BME280;42503;39.928;-75.152;2022-10-26T04:19:21;101365.66;;;23.37;47.73
56632;BME280;42503;39.928;-75.152;2022-10-26T04:21:22;101355.34;;;23.37;47.71
56632;BME280;42503;39.928;-75.152;2022-10-26T04:23:24;101355.34;;;23.37;47.55
56632;BME280;42503;39.928;-75.152;2022-10-26T04:25:32;101353.41;;;23.32;47.66
56632;BME280;42503;39.928;-75.152;2022-10-26T04:27:36;101338.88;;;23.30;47.89
56632;BME280;42503;39.928;-75.152;2022-10-26T04:29:37;101351.69;;;23.37;48.08
56632;BME280;42503;39.928;-75.152;2022-10-26T04:31:38;101345.00;;;23.38;47.96
56632;BME280;42503;39.928;-75.152;2022-10-26T04:33:41;101339.97;;;23.34;47.75
56632;BME280;42503;39.928;-75.152;2022-10-26T04:35:45;101339.41;;;23.38;47.99
56632;BME280;42503;39.928;-75.152;2022-10-26T04:37:48;101337.44;;;23.38;47.43
56632;BME280;42503;39.928;-75.152;2022-10-26T04:39:49;101337.16;;;23.40;47.92
56632;BME280;42503;39.928;-75.152;2022-10-26T04:41:50;101306.53;;;23.24;47.69
56632;BME280;42503;39.928;-75.152;2022-10-26T04:43:51;101331.56;;;23.40;47.81
56632;BME280;42503;39.928;-75.152;2022-10-26T04:45:59;101332.41;;;23.40;47.62
56632;BME280;42503;39.928;-75.152;2022-10-26T04:50:05;101323.19;;;23.40;47.51
56632;BME280;42503;39.928;-75.152;2022-10-26T04:52:06;101305.94;;;23.27;47.76
56632;BME280;42503;39.928;-75.152;2022-10-26T04:54:08;101322.88;;;23.41;47.74
56632;BME280;42503;39.928;-75.152;2022-10-26T04:56:12;101313.69;;;23.41;47.55
56632;BME280;42503;39.928;-75.152;2022-10-26T04:58:13;101324.03;;;23.40;47.59
56632;BME280;42503;39.928;-75.152;2022-10-26T05:00:15;101313.72;;;23.36;47.71
56632;BME280;42503;39.928;-75.152;2022-10-26T05:02:16;101291.16;;;23.27;47.85
56632;BME280;42503;39.928;-75.152;2022-10-26T05:04:17;101313.97;;;23.39;47.87
56632;BME280;42503;39.928;-75.152;2022-10-26T05:06:19;101312.84;;;23.40;47.54
56632;BME280;42503;39.928;-75.152;2022-10-26T05:08:20;101310.06;;;23.40;47.83
56632;BME280;42503;39.928;-75.152;2022-10-26T05:10:22;101304.47;;;23.40;47.79
56632;BME280;42503;39.928;-75.152;2022-10-26T05:12:24;101309.22;;;23.40;47.91
56632;BME280;42503;39.928;-75.152;2022-10-26T05:14:25;101305.31;;;23.41;47.54
56632;BME280;42503;39.928;-75.152;2022-10-26T05:16:32;101297.53;;;23.38;47.71
56632;BME280;42503;39.928;-75.152;2022-10-26T05:18:33;101301.41;;;23.42;47.65
56632;BME280;42503;39.928;-75.152;2022-10-26T05:20:35;101303.09;;;23.38;47.62
56632;BME280;42503;39.928;-75.152;2022-10-26T05:22:37;101298.88;;;23.40;47.70
56632;BME280;42503;39.928;-75.152;2022-10-26T05:24:38;101286.88;;;23.40;47.75
56632;BME280;42503;39.928;-75.152;2022-10-26T05:26:42;101288.53;;;23.41;47.45
56632;BME280;42503;39.928;-75.152;2022-10-26T05:28:44;101289.13;;;23.38;47.58
56632;BME280;42503;39.928;-75.152;2022-10-26T05:30:45;101291.34;;;23.41;47.72
56632;BME280;42503;39.928;-75.152;2022-10-26T05:32:53;101280.47;;;23.39;47.82
56632;BME280;42503;39.928;-75.152;2022-10-26T05:34:54;101282.97;;;23.41;47.55
56632;BME280;42503;39.928;-75.152;2022-10-26T05:36:56;101282.97;;;23.41;47.88
56632;BME280;42503;39.928;-75.152;2022-10-26T05:39:00;101252.91;;;23.22;47.61
56632;BME280;42503;39.928;-75.152;2022-10-26T05:41:04;101267.34;;;23.40;47.84
56632;BME280;42503;39.928;-75.152;2022-10-26T05:43:08;101272.91;;;23.40;47.69
56632;BME280;42503;39.928;-75.152;2022-10-26T05:45:12;101271.78;;;23.41;47.39
56632;BME280;42503;39.928;-75.152;2022-10-26T05:47:14;101232.00;;;23.20;47.58
56632;BME280;42503;39.928;-75.152;2022-10-26T05:49:15;101264.53;;;23.40;47.72
56632;BME280;42503;39.928;-75.152;2022-10-26T05:51:16;101273.47;;;23.42;47.87
56632;BME280;42503;39.928;-75.152;2022-10-26T05:53:18;101262.88;;;23.39;47.57
56632;BME280;42503;39.928;-75.152;2022-10-26T05:55:19;101260.63;;;23.41;47.75
56632;BME280;42503;39.928;-75.152;2022-10-26T05:57:21;101262.56;;;23.40;47.44
56632;BME280;42503;39.928;-75.152;2022-10-26T05:59:23;101258.94;;;23.40;47.88
56632;BME280;42503;39.928;-75.152;2022-10-26T06:01:33;101261.75;;;23.40;47.71
56632;BME280;42503;39.928;-75.152;2022-10-26T06:04:08;101270.13;;;23.40;47.91
56632;BME280;42503;39.928;-75.152;2022-10-26T06:06:12;101231.41;;;23.23;47.72
56632;BME280;42503;39.928;-75.152;2022-10-26T06:08:13;101267.91;;;23.42;47.55
56632;BME280;42503;39.928;-75.152;2022-10-26T06:10:18;101267.91;;;23.42;47.96
56632;BME280;42503;39.928;-75.152;2022-10-26T06:12:20;101251.41;;;23.40;47.51
56632;BME280;42503;39.928;-75.152;2022-10-26T06:14:22;101267.03;;;23.41;47.79
56632;BME280;42503;39.928;-75.152;2022-10-26T06:16:32;101254.50;;;23.39;47.96
56632;BME280;42503;39.928;-75.152;2022-10-26T06:25:55;101253.38;;;23.40;47.78
56632;BME280;42503;39.928;-75.152;2022-10-26T06:30:50;101229.97;;;23.30;47.83
56632;BME280;42503;39.928;-75.152;2022-10-26T06:32:52;101246.66;;;23.41;47.70
56632;BME280;42503;39.928;-75.152;2022-10-26T06:37:37;101238.88;;;23.38;47.76
56632;BME280;42503;39.928;-75.152;2022-10-26T06:39:49;101251.25;;;23.21;47.52
56632;BME280;42503;39.928;-75.152;2022-10-26T06:41:51;101221.91;;;23.29;47.66
56632;BME280;42503;39.928;-75.152;2022-10-26T06:43:58;101245.00;;;23.40;47.75
56632;BME280;42503;39.928;-75.152;2022-10-26T06:48:14;101227.19;;;23.30;47.90
56632;BME280;42503;39.928;-75.152;2022-10-26T06:50:52;101213.00;;;23.22;47.62
56632;BME280;42503;39.928;-75.152;2022-10-26T06:53:03;101234.94;;;23.39;47.42
56632;BME280;42503;39.928;-75.152;2022-10-26T06:55:12;101234.94;;;23.39;47.83
56632;BME280;42503;39.928;-75.152;2022-10-26T06:57:15;101238.28;;;23.41;47.63
56632;BME280;42503;39.928;-75.152;2022-10-26T06:59:29;101227.72;;;23.38;47.73
56632;BME280;42503;39.928;-75.152;2022-10-26T07:01:31;101229.38;;;23.39;47.54
56632;BME280;42503;39.928;-75.152;2022-10-26T07:03:32;101224.91;;;23.38;47.66
56632;BME280;42503;39.928;-75.152;2022-10-26T07:05:34;101225.44;;;23.40;47.76
56632;BME280;42503;39.928;-75.152;2022-10-26T07:07:36;101196.84;;;23.19;47.47
56632;BME280;42503;39.928;-75.152;2022-10-26T07:09:40;101213.44;;;23.39;47.78
56632;BME280;42503;39.928;-75.152;2022-10-26T07:11:41;101214.56;;;23.38;47.58
56632;BME280;42503;39.928;-75.152;2022-10-26T07:13:43;101209.00;;;23.38;47.57
56632;BME280;42503;39.928;-75.152;2022-10-26T07:15:44;101207.03;;;23.39;47.56
56632;BME280;42503;39.928;-75.152;2022-10-26T07:17:47;101202.00;;;23.36;47.52
56632;BME280;42503;39.928;-75.152;2022-10-26T07:19:48;101200.59;;;23.38;47.71
56632;BME280;42503;39.928;-75.152;2022-10-26T07:21:53;101191.41;;;23.38;47.41
56632;BME280;42503;39.928;-75.152;2022-10-26T07:23:56;101190.56;;;23.37;47.61
56632;BME280;42503;39.928;-75.152;2022-10-26T07:26:03;100832.66;;;20.86;47.78
56632;BME280;42503;39.928;-75.152;2022-10-26T07:28:11;101184.13;;;23.37;47.91
56632;BME280;42503;39.928;-75.152;2022-10-26T07:30:16;101169.69;;;23.29;47.79
56632;BME280;42503;39.928;-75.152;2022-10-26T07:32:20;101166.88;;;23.29;47.66
56632;BME280;42503;39.928;-75.152;2022-10-26T07:34:24;101169.34;;;23.36;47.77
56632;BME280;42503;39.928;-75.152;2022-10-26T07:36:25;101169.34;;;23.36;47.61
56632;BME280;42503;39.928;-75.152;2022-10-26T07:38:28;101164.56;;;23.37;47.48
56632;BME280;42503;39.928;-75.152;2022-10-26T07:40:30;101163.75;;;23.36;47.46
56632;BME280;42503;39.928;-75.152;2022-10-26T07:42:32;101164.56;;;23.37;47.78
56632;BME280;42503;39.928;-75.152;2022-10-26T07:44:33;101164.56;;;23.37;47.52
56632;BME280;42503;39.928;-75.152;2022-10-26T07:46:34;101160.69;;;23.38;47.73
56632;BME280;42503;39.928;-75.152;2022-10-26T07:48:40;101154.00;;;23.33;47.45
56632;BME280;42503;39.928;-75.152;2022-10-26T07:50:44;101149.50;;;23.38;47.62
56632;BME280;42503;39.928;-75.152;2022-10-26T07:52:46;101155.94;;;23.38;47.85
56632;BME280;42503;39.928;-75.152;2022-10-26T07:54:47;101138.34;;;23.38;47.77
56632;BME280;42503;39.928;-75.152;2022-10-26T07:56:48;101148.69;;;23.37;47.66
56632;BME280;42503;39.928;-75.152;2022-10-26T07:58:55;101147.81;;;23.37;47.67
56632;BME280;42503;39.928;-75.152;2022-10-26T08:01:08;101142.25;;;23.37;47.79
56632;BME280;42503;39.928;-75.152;2022-10-26T08:03:09;101121.66;;;23.27;47.37
56632;BME280;42503;39.928;-75.152;2022-10-26T08:05:11;101120.25;;;23.30;47.43
56632;BME280;42503;39.928;-75.152;2022-10-26T08:07:15;101121.34;;;23.34;47.65
56632;BME280;42503;39.928;-75.152;2022-10-26T08:09:19;101127.16;;;23.38;47.76
56632;BME280;42503;39.928;-75.152;2022-10-26T08:11:23;101124.38;;;23.38;47.48
56632;BME280;42503;39.928;-75.152;2022-10-26T08:13:27;101123.56;;;23.37;47.45
56632;BME280;42503;39.928;-75.152;2022-10-26T08:15:31;101115.16;;;23.37;47.54
56632;BME280;42503;39.928;-75.152;2022-10-26T08:17:33;101109.34;;;23.33;47.67
56632;BME280;42503;39.928;-75.152;2022-10-26T08:19:34;101113.22;;;23.38;47.51
56632;BME280;42503;39.928;-75.152;2022-10-26T08:21:36;101105.94;;;23.37;47.58
56632;BME280;42503;39.928;-75.152;2022-10-26T08:23:37;101093.16;;;23.30;47.45
56632;BME280;42503;39.928;-75.152;2022-10-26T08:25:38;101103.13;;;23.37;47.61
56632;BME280;42503;39.928;-75.152;2022-10-26T08:27:40;101110.69;;;23.36;47.88
56632;BME280;42503;39.928;-75.152;2022-10-26T08:29:41;101108.72;;;23.37;47.55
56632;BME280;42503;39.928;-75.152;2022-10-26T08:31:43;101107.91;;;23.36;47.43
56632;BME280;42503;39.928;-75.152;2022-10-26T08:33:47;101080.38;;;23.24;47.64
56632;BME280;42503;39.928;-75.152;2022-10-26T08:36:00;101095.38;;;23.33;47.88
56632;BME280;42503;39.928;-75.152;2022-10-26T08:38:02;101095.38;;;23.33;47.66
56632;BME280;42503;39.928;-75.152;2022-10-26T08:40:03;101067.00;;;23.21;47.58
56632;BME280;42503;39.928;-75.152;2022-10-26T08:42:39;101042.56;;;23.08;47.85
56632;BME280;42503;39.928;-75.152;2022-10-26T08:44:51;101093.66;;;23.38;47.70
56632;BME280;42503;39.928;-75.152;2022-10-26T08:47:19;101098.69;;;23.36;47.75
56632;BME280;42503;39.928;-75.152;2022-10-26T08:49:24;101098.13;;;23.39;47.77
56632;BME280;42503;39.928;-75.152;2022-10-26T08:51:31;101098.13;;;23.39;47.58
56632;BME280;42503;39.928;-75.152;2022-10-26T08:55:55;101095.91;;;23.36;47.71
56632;BME280;42503;39.928;-75.152;2022-10-26T08:58:00;101095.06;;;23.35;47.58
56632;BME280;42503;39.928;-75.152;2022-10-26T09:00:19;101098.41;;;23.37;47.68
56632;BME280;42503;39.928;-75.152;2022-10-26T09:02:21;101093.66;;;23.38;47.34
56632;BME280;42503;39.928;-75.152;2022-10-26T09:04:28;101094.75;;;23.37;47.73
56632;BME280;42503;39.928;-75.152;2022-10-26T09:11:12;101089.72;;;23.39;47.58
56632;BME280;42503;39.928;-75.152;2022-10-26T09:15:47;101091.97;;;23.37;47.91
56632;BME280;42503;39.928;-75.152;2022-10-26T09:18:21;101081.88;;;23.41;47.62
56632;BME280;42503;39.928;-75.152;2022-10-26T09:20:37;101079.66;;;23.43;47.59
56632;BME280;42503;39.928;-75.152;2022-10-26T09:22:55;101063.47;;;23.40;47.64
56632;BME280;42503;39.928;-75.152;2022-10-26T09:25:05;101061.81;;;23.39;47.53
56632;BME280;42503;39.928;-75.152;2022-10-26T09:29:13;101056.22;;;23.39;47.87
56632;BME280;42503;39.928;-75.152;2022-10-26T09:31:16;101076.91;;;23.38;47.77
56632;BME280;42503;39.928;-75.152;2022-10-26T09:33:21;101085.56;;;23.36;47.77
56632;BME280;42503;39.928;-75.152;2022-10-26T09:35:58;101080.03;;;23.31;48.01
56632;BME280;42503;39.928;-75.152;2022-10-26T09:38:14;101081.66;;;23.37;47.83
56632;BME280;42503;39.928;-75.152;2022-10-26T09:45:27;101066.31;;;23.34;47.83
56632;BME280;42503;39.928;-75.152;2022-10-26T09:47:38;101081.66;;;23.37;47.68
56632;BME280;42503;39.928;-75.152;2022-10-26T09:49:50;101073.56;;;23.36;47.52
56632;BME280;42503;39.928;-75.152;2022-10-26T09:51:53;101073.56;;;23.36;47.66
56632;BME280;42503;39.928;-75.152;2022-10-26T09:54:00;101108.19;;;23.34;47.55
56632;BME280;42503;39.928;-75.152;2022-10-26T09:56:08;101071.91;;;23.34;47.68
56632;BME280;42503;39.928;-75.152;2022-10-26T09:58:26;101047.19;;;23.18;47.75
56632;BME280;42503;39.928;-75.152;2022-10-26T10:00:28;101078.00;;;23.37;47.70
56632;BME280;42503;39.928;-75.152;2022-10-26T10:02:40;101066.31;;;23.34;47.75
56632;BME280;42503;39.928;-75.152;2022-10-26T10:04:45;101061.56;;;23.35;47.62
56632;BME280;42503;39.928;-75.152;2022-10-26T10:06:50;101055.97;;;23.35;47.67
56632;BME280;42503;39.928;-75.152;2022-10-26T10:09:09;101054.63;;;23.32;47.96
56632;BME280;42503;39.928;-75.152;2022-10-26T10:11:13;101067.97;;;23.36;47.92
56632;BME280;42503;39.928;-75.152;2022-10-26T10:13:16;101055.97;;;23.35;47.71
56632;BME280;42503;39.928;-75.152;2022-10-26T10:15:22;101071.91;;;23.34;47.73
56632;BME280;42503;39.928;-75.152;2022-10-26T10:17:25;101064.34;;;23.35;47.51
56632;BME280;42503;39.928;-75.152;2022-10-26T10:19:29;101059.06;;;23.33;47.54
56632;BME280;42503;39.928;-75.152;2022-10-26T10:21:50;101044.03;;;23.29;47.52
56632;BME280;42503;39.928;-75.152;2022-10-26T10:23:54;101057.56;;;23.41;47.37
56632;BME280;42503;39.928;-75.152;2022-10-26T10:28:22;101046.47;;;23.36;47.67
56632;BME280;42503;39.928;-75.152;2022-10-26T10:30:32;101040.88;;;23.36;47.55
56632;BME280;42503;39.928;-75.152;2022-10-26T10:32:33;101036.13;;;23.37;47.61
56632;BME280;42503;39.928;-75.152;2022-10-26T10:34:37;101036.13;;;23.37;47.54
56632;BME280;42503;39.928;-75.152;2022-10-26T10:36:41;101037.25;;;23.36;47.73
56632;BME280;42503;39.928;-75.152;2022-10-26T10:38:45;101033.63;;;23.35;47.63
56632;BME280;42503;39.928;-75.152;2022-10-26T10:40:55;101030.00;;;23.34;47.80
56632;BME280;42503;39.928;-75.152;2022-10-26T10:43:16;101031.16;;;23.33;47.78
56632;BME280;42503;39.928;-75.152;2022-10-26T10:45:20;101024.94;;;23.37;47.62
56632;BME280;42503;39.928;-75.152;2022-10-26T10:47:32;101025.81;;;23.37;47.56
56632;BME280;42503;39.928;-75.152;2022-10-26T10:49:34;101027.22;;;23.34;47.72
56632;BME280;42503;39.928;-75.152;2022-10-26T10:51:38;100991.16;;;23.14;47.66
56632;BME280;42503;39.928;-75.152;2022-10-26T10:53:46;101027.22;;;23.34;47.79
56632;BME280;42503;39.928;-75.152;2022-10-26T10:56:02;101014.91;;;23.36;47.72
56632;BME280;42503;39.928;-75.152;2022-10-26T11:00:12;101016.56;;;23.37;47.63
56632;BME280;42503;39.928;-75.152;2022-10-26T11:07:25;101020.22;;;23.37;47.56
56632;BME280;42503;39.928;-75.152;2022-10-26T11:09:31;101016.88;;;23.35;47.45
56632;BME280;42503;39.928;-75.152;2022-10-26T11:11:44;101017.72;;;23.36;47.78
56632;BME280;42503;39.928;-75.152;2022-10-26T11:16:13;100972.13;;;23.16;47.80
56632;BME280;42503;39.928;-75.152;2022-10-26T11:18:32;100982.53;;;23.11;47.74
56632;BME280;42503;39.928;-75.152;2022-10-26T11:20:40;101014.97;;;23.30;47.81
56632;BME280;42503;39.928;-75.152;2022-10-26T11:23:16;101015.22;;;23.34;48.26
56632;BME280;42503;39.928;-75.152;2022-10-26T11:27:41;101013.78;;;23.37;48.03
56632;BME280;42503;39.928;-75.152;2022-10-26T11:31:57;101022.97;;;23.42;48.13
56632;BME280;42503;39.928;-75.152;2022-10-26T11:34:33;101026.63;;;23.38;48.21
56632;BME280;42503;39.928;-75.152;2022-10-26T11:36:38;101013.31;;;23.29;48.22
56632;BME280;42503;39.928;-75.152;2022-10-26T11:38:57;101030.25;;;23.38;48.08
56632;BME280;42503;39.928;-75.152;2022-10-26T11:41:21;101025.81;;;23.37;48.10
56632;BME280;42503;39.928;-75.152;2022-10-26T11:48:28;101009.59;;;23.39;48.18
56632;BME280;42503;39.928;-75.152;2022-10-26T11:50:33;100964.84;;;23.20;48.13
56632;BME280;42503;39.928;-75.152;2022-10-26T11:52:44;101002.63;;;23.37;48.25
56632;BME280;42503;39.928;-75.152;2022-10-26T11:54:53;100992.31;;;23.37;48.06
56632;BME280;42503;39.928;-75.152;2022-10-26T11:56:56;100986.16;;;23.35;48.34
56632;BME280;42503;39.928;-75.152;2022-10-26T11:58:58;100960.09;;;23.21;48.27